Time;durP1;ratioP1;P1;durP2;ratioP2;P2;SDS_P1;SDS_P2;PMS_P1;PMS_P2;Temp;Humidity;BMP_temperature;BMP_pressure;BME280_temperature;BME280_humidity;BME280_pressure;Samples;Min_cycle;Max_cycle;Signal;HPM_P1;HPM_P2
2021/06/17 00:02:20;;;;;;;12.58;5.75;;;;;;;12.11;73.58;101849.03;1753113;81;21554;-87
2021/06/17 00:04:48;;;;;;;11.22;5.17;;;;;;;12.11;73.67;101852.99;1757140;81;21819;-86
2021/06/17 00:07:15;;;;;;;13.13;5.47;;;;;;;12.09;73.79;101853.33;1752888;81;21131;-87
2021/06/17 00:09:41;;;;;;;13.98;6.20;;;;;;;12.06;73.90;101849.73;1737410;81;21099;-87
2021/06/17 00:12:09;;;;;;;13.43;6.22;;;;;;;12.06;73.97;101858.98;1751140;80;21076;-89
2021/06/17 00:14:38;;;;;;;13.28;5.50;;;;;;;12.04;74.01;101860.66;1751422;81;21382;-87
2021/06/17 00:17:05;;;;;;;16.60;5.78;;;;;;;12.01;74.07;101851.34;1752809;81;21785;-87
2021/06/17 00:19:32;;;;;;;12.80;5.90;;;;;;;12.00;74.15;101851.27;1752659;81;21553;-88
2021/06/17 00:22:00;;;;;;;13.60;5.67;;;;;;;11.97;74.20;101842.80;1752750;81;21005;-87
2021/06/17 00:24:31;;;;;;;10.68;5.50;;;;;;;11.96;74.29;101843.66;1707543;81;21036;-88
2021/06/17 00:26:59;;;;;;;12.37;5.50;;;;;;;11.95;74.36;101846.23;1706980;81;21009;-87
2021/06/17 00:29:35;;;;;;;14.68;5.55;;;;;;;11.95;74.43;101848.88;1645462;86;21139;-87
2021/06/17 00:32:11;;;;;;;14.28;6.05;;;;;;;11.93;74.55;101847.92;1643068;86;21130;-87
2021/06/17 00:34:41;;;;;;;11.03;5.67;;;;;;;11.92;74.73;101850.07;1582363;89;21142;-87
2021/06/17 00:37:13;;;;;;;15.30;5.83;;;;;;;11.90;74.78;101846.08;1504990;92;21574;-88
2021/06/17 00:39:46;;;;;;;15.32;5.30;;;;;;;11.89;74.89;101849.52;1582334;90;21179;-87
2021/06/17 00:42:57;;;;;;;11.33;5.10;;;;;;;11.88;74.96;101850.37;1523069;93;21146;-88
2021/06/17 00:46:42;;;;;;;8.30;4.95;;;;;;;11.86;75.00;101851.63;1437245;98;21081;-88
2021/06/17 00:52:27;;;;;;;10.50;4.97;;;;;;;11.82;75.22;101847.09;1378165;102;20367;-88
2021/06/17 00:54:57;;;;;;;9.20;4.70;;;;;;;11.80;75.21;101849.17;1362640;104;21821;-88
2021/06/17 00:57:24;;;;;;;10.43;4.87;;;;;;;11.77;75.29;101846.00;1378294;104;21867;-88
2021/06/17 00:59:51;;;;;;;11.20;4.60;;;;;;;11.75;75.36;101846.38;1378170;104;21708;-88
2021/06/17 01:02:20;;;;;;;11.75;5.17;;;;;;;11.75;75.35;101846.77;1377868;104;21145;-87
2021/06/17 01:04:48;;;;;;;9.80;4.83;;;;;;;11.72;75.44;101850.20;1378476;104;21196;-87
2021/06/17 01:07:35;;;;;;;11.48;5.15;;;;;;;11.71;75.48;101844.43;1378659;104;21187;-87
2021/06/17 01:10:25;;;;;;;8.65;4.58;;;;;;;11.70;75.58;101844.41;1378086;102;21919;-87
2021/06/17 01:13:03;;;;;;;14.60;5.65;;;;;;;11.59;75.56;101826.84;1380953;103;21223;-86
2021/06/17 01:15:31;;;;;;;11.57;5.20;;;;;;;11.70;75.59;101843.97;1378599;102;21231;-87
2021/06/17 01:18:14;;;;;;;11.85;4.40;;;;;;;11.67;75.57;101841.20;1377816;103;21212;-88
2021/06/17 01:20:58;;;;;;;13.50;5.00;;;;;;;11.65;75.66;101836.30;1452821;97;21184;-86
2021/06/17 01:23:57;;;;;;;12.20;4.85;;;;;;;11.64;75.67;101836.73;1461901;97;21882;-85
2021/06/17 01:27:08;;;;;;;8.63;4.20;;;;;;;11.63;75.70;101832.70;1508338;89;21125;-88
2021/06/17 01:30:04;;;;;;;6.50;4.20;;;;;;;11.62;75.73;101834.45;1576303;89;21227;-87
2021/06/17 01:32:59;;;;;;;14.03;4.20;;;;;;;11.59;75.75;101830.80;1528043;92;21145;-87
2021/06/17 01:36:19;;;;;;;8.93;5.10;;;;;;;11.58;75.88;101831.62;1483166;94;21114;-87
2021/06/17 01:42:26;;;;;;;7.75;4.17;;;;;;;11.55;76.02;101831.09;1417742;100;21665;-87
2021/06/17 01:45:20;;;;;;;9.80;4.50;;;;;;;11.54;76.04;101827.08;1356654;105;21714;-87
2021/06/17 01:48:21;;;;;;;8.70;4.12;;;;;;;11.53;76.06;101823.55;1288625;110;21790;-86
2021/06/17 01:52:13;;;;;;;10.60;4.80;;;;;;;11.54;76.08;101834.56;1276883;112;21265;-88
2021/06/17 01:59:15;;;;;;;9.68;4.25;;;;;;;11.50;76.09;101833.08;1260807;113;21842;-89
2021/06/17 02:02:27;;;;;;;9.18;3.98;;;;;;;11.52;76.19;101839.31;1272515;111;29153;-88
2021/06/17 02:05:54;;;;;;;9.13;4.62;;;;;;;11.50;76.14;101835.28;1275123;111;21222;-87
2021/06/17 02:08:21;;;;;;;9.45;4.62;;;;;;;11.48;76.11;101836.54;1271829;112;21210;-88
2021/06/17 02:11:02;;;;;;;9.45;4.15;;;;;;;11.48;76.16;101836.97;1327045;107;21867;-87
2021/06/17 02:13:55;;;;;;;7.97;4.53;;;;;;;11.49;76.23;101838.78;1342691;106;21232;-87
2021/06/17 02:21:31;;;;;;;10.13;4.33;;;;;;;11.51;76.21;101830.51;1293853;108;21537;-88
2021/06/17 02:23:59;;;;;;;10.53;4.22;;;;;;;11.52;76.19;101834.03;1305708;109;21200;-86
2021/06/17 02:26:29;;;;;;;7.87;3.70;;;;;;;11.53;76.22;101823.98;1288477;111;22550;-88
2021/06/17 02:29:27;;;;;;;12.05;4.10;;;;;;;11.56;76.21;101833.30;1348558;105;21218;-87
2021/06/17 02:32:31;;;;;;;8.88;3.98;;;;;;;11.58;76.20;101839.53;1326504;107;21231;-87
2021/06/17 02:35:00;;;;;;;10.45;4.85;;;;;;;11.59;76.20;101836.07;1311901;108;21140;-87
2021/06/17 02:37:26;;;;;;;9.88;4.20;;;;;;;11.62;76.26;101838.84;1307533;109;21198;-89
2021/06/17 02:39:56;;;;;;;9.10;4.22;;;;;;;11.65;76.37;101844.20;1307467;108;21845;-87
2021/06/17 02:42:24;;;;;;;8.73;3.90;;;;;;;11.71;76.42;101839.16;1322002;108;21740;-86
2021/06/17 02:44:51;;;;;;;10.50;3.62;;;;;;;11.76;76.49;101838.92;1307658;109;21280;-86
2021/06/17 02:47:18;;;;;;;6.45;3.35;;;;;;;11.82;76.59;101839.56;1307471;108;21297;-86
2021/06/17 02:49:45;;;;;;;12.55;4.15;;;;;;;11.90;76.63;101842.52;1307628;109;21277;-86
2021/06/17 02:52:11;;;;;;;8.18;3.35;;;;;;;11.96;76.60;101841.02;1327529;108;21845;-86
2021/06/17 02:54:47;;;;;;;10.05;4.20;;;;;;;12.02;76.62;101835.96;1349021;105;21862;-86
2021/06/17 02:57:24;;;;;;;15.88;3.50;;;;;;;12.11;76.62;101843.33;1359700;105;21217;-86
2021/06/17 03:00:07;;;;;;;7.62;3.65;;;;;;;12.19;76.58;101840.95;1359487;104;21217;-86
2021/06/17 03:03:09;;;;;;;8.65;4.10;;;;;;;12.28;76.45;101841.29;1372288;104;27965;-86
2021/06/17 03:05:46;;;;;;;9.63;3.15;;;;;;;12.34;76.36;101836.22;1372868;103;21836;-86
2021/06/17 03:08:38;;;;;;;5.75;3.37;;;;;;;12.44;76.27;101837.42;1420916;91;21756;-86
2021/06/17 03:11:09;;;;;;;9.65;4.12;;;;;;;12.54;76.21;101839.99;1561600;91;21572;-86
2021/06/17 03:13:37;;;;;;;7.12;3.45;;;;;;;12.67;76.12;101838.24;1694084;83;21075;-86
2021/06/17 03:16:04;;;;;;;8.23;3.75;;;;;;;12.79;76.05;101840.39;1708111;82;21514;-86
2021/06/17 03:18:42;;;;;;;10.05;3.42;;;;;;;12.90;75.96;101836.36;1707996;84;22871;-86
2021/06/17 03:23:42;;;;;;;5.00;3.40;;;;;;;13.25;75.81;101829.99;1868140;76;22635;-88
2021/06/17 03:26:13;;;;;;;9.95;3.65;;;;;;;13.41;75.82;101828.30;1831957;78;21637;-89
2021/06/17 03:28:40;;;;;;;9.13;3.95;;;;;;;13.68;75.72;101832.63;1825625;78;21766;-89
2021/06/17 03:31:08;;;;;;;7.58;3.55;;;;;;;14.51;78.08;101829.66;1826007;78;21663;-89
2021/06/17 03:33:37;;;;;;;7.42;2.90;;;;;;;16.41;78.29;101828.16;1825398;78;21066;-89
2021/06/17 03:36:06;;;;;;;5.53;3.12;;;;;;;17.70;76.12;101817.33;1804981;78;21541;-89
2021/06/17 03:38:33;;;;;;;6.37;3.17;;;;;;;19.12;74.36;101816.08;1831971;78;21078;-89
2021/06/17 03:41:05;;;;;;;7.03;2.75;;;;;;;19.28;69.83;101815.75;1825583;78;21779;-89
2021/06/17 03:43:36;;;;;;;7.05;3.20;;;;;;;18.84;68.33;101817.20;1825739;78;21050;-89
2021/06/17 03:46:03;;;;;;;8.78;2.98;;;;;;;18.51;67.96;101820.02;1825893;78;20924;-88
2021/06/17 03:48:52;;;;;;;9.88;2.98;;;;;;;18.78;69.00;101822.02;1784401;80;21102;-89
2021/06/17 03:55:39;;;;;;;;;;;;;;;;;;;;;
2021/06/17 03:58:01;;;;;;;8.20;3.30;;;;;;;25.92;65.68;101811.64;1662515;86;21596;-87
2021/06/17 04:04:16;;;;;;;11.05;2.92;;;;;;;29.73;58.53;101812.05;1588318;89;21440;-84
2021/06/17 04:06:56;;;;;;;12.65;3.50;;;;;;;31.58;54.75;101813.39;1586261;89;21137;-84
2021/06/17 04:09:28;;;;;;;15.00;3.37;;;;;;;32.75;52.31;101804.99;1607062;88;22613;-84
2021/06/17 04:11:59;;;;;;;14.85;3.75;;;;;;;33.82;49.54;101799.72;1613875;88;22038;-84
2021/06/17 04:14:26;;;;;;;5.87;2.50;;;;;;;34.60;47.41;101807.13;1613992;88;21096;-85
2021/06/17 04:16:53;;;;;;;5.30;3.00;;;;;;;35.35;45.87;101809.91;1613854;87;21077;-84
2021/06/17 04:19:21;;;;;;;8.15;2.85;;;;;;;36.02;44.27;101803.30;1608399;88;21142;-84
2021/06/17 04:21:53;;;;;;;7.80;2.92;;;;;;;36.74;42.38;101808.09;1598298;89;21785;-86
2021/06/17 04:24:21;;;;;;;7.58;2.67;;;;;;;37.30;40.94;101802.87;1602192;87;21046;-85
2021/06/17 04:26:50;;;;;;;6.00;3.08;;;;;;;37.97;39.71;101816.80;1585141;90;21745;-86
2021/06/17 04:29:17;;;;;;;8.38;2.70;;;;;;;38.64;38.49;101813.60;1584953;89;21132;-85
2021/06/17 04:31:52;;;;;;;6.00;2.83;;;;;;;39.22;37.23;101814.53;1611455;89;21306;-86
2021/06/17 04:34:19;;;;;;;10.05;2.62;;;;;;;39.75;35.65;101815.33;1585728;89;22644;-82
2021/06/17 04:36:46;;;;;;;4.50;2.30;;;;;;;40.13;34.47;101805.80;1714767;81;21222;-83
2021/06/17 04:39:13;;;;;;;8.50;3.20;;;;;;;40.51;33.36;101809.05;1760063;81;21076;-84
2021/06/17 04:41:48;;;;;;;6.12;2.55;;;;;;;40.96;32.96;101803.36;1786725;80;21582;-84
2021/06/17 04:44:15;;;;;;;6.45;2.67;;;;;;;41.57;31.28;101802.02;1792193;78;21069;-86
2021/06/17 04:46:42;;;;;;;6.35;2.58;;;;;;;42.03;30.84;101802.50;1792057;80;21720;-85
2021/06/17 04:49:13;;;;;;;5.70;2.50;;;;;;;42.59;30.20;101804.26;1772245;80;21650;-87
2021/06/17 04:51:40;;;;;;;3.40;2.40;;;;;;;43.33;28.91;101806.37;1730778;81;21518;-84
2021/06/17 04:54:08;;;;;;;6.58;2.83;;;;;;;43.45;27.89;101805.14;1707207;84;21650;-85
2021/06/17 04:56:39;;;;;;;6.30;3.15;;;;;;;43.54;26.88;101814.45;1707658;84;21089;-86
2021/06/17 04:59:04;;;;;;;3.75;2.17;;;;;;;43.44;26.70;101811.73;1707510;83;21875;-87
2021/06/17 05:01:31;;;;;;;8.25;2.65;;;;;;;43.69;26.23;101812.05;1707694;84;21611;-86
2021/06/17 05:03:57;;;;;;;7.28;2.70;;;;;;;44.02;25.56;101811.97;1707725;82;21706;-85
2021/06/17 05:06:26;;;;;;;4.97;3.02;;;;;;;44.27;25.15;101810.01;1707541;82;21152;-87
2021/06/17 05:11:40;;;;;;;6.17;2.87;;;;;;;44.66;24.34;101815.23;1706202;82;21803;-87
2021/06/17 05:14:06;;;;;;;10.05;2.90;;;;;;;44.92;23.36;101809.75;1706416;82;21081;-84
2021/06/17 05:16:33;;;;;;;5.53;2.65;;;;;;;44.74;23.10;101807.86;1706426;84;21088;-85
2021/06/17 05:19:01;;;;;;;7.70;3.30;;;;;;;44.72;22.80;101811.31;1706274;82;21120;-85
2021/06/17 05:21:30;;;;;;;6.33;2.85;;;;;;;44.75;22.48;101812.39;1705597;80;21155;-83
2021/06/17 05:23:59;;;;;;;6.75;2.42;;;;;;;44.82;22.21;101807.05;1790655;78;21069;-83
2021/06/17 05:26:25;;;;;;;5.90;2.67;;;;;;;44.95;21.97;101814.99;1792077;79;21051;-83
2021/06/17 05:28:52;;;;;;;8.35;2.58;;;;;;;44.99;21.49;101815.88;1792282;80;21128;-84
2021/06/17 05:31:23;;;;;;;4.67;2.47;;;;;;;45.13;21.20;101820.52;1791859;80;21046;-83
2021/06/17 05:33:48;;;;;;;8.88;2.62;;;;;;;45.20;21.00;101823.86;1791694;79;21015;-83
2021/06/17 05:36:15;;;;;;;8.23;3.25;;;;;;;45.50;20.88;101815.17;1792109;79;21744;-83
2021/06/17 05:38:42;;;;;;;5.45;2.75;;;;;;;45.58;20.41;101815.23;1792199;79;21105;-83
2021/06/17 05:41:10;;;;;;;6.85;2.40;;;;;;;45.41;20.28;101821.23;1792049;80;21578;-83
2021/06/17 05:43:37;;;;;;;6.42;2.75;;;;;;;44.75;19.87;101822.61;1791947;78;21078;-83
2021/06/17 05:46:04;;;;;;;8.28;2.95;;;;;;;42.24;19.62;101819.01;1792226;79;20939;-83
2021/06/17 05:48:32;;;;;;;9.98;2.92;;;;;;;39.18;20.52;101814.41;1792103;79;21746;-83
2021/06/17 05:50:59;;;;;;;9.38;2.90;;;;;;;36.54;21.85;101817.64;1792082;78;21544;-83
2021/06/17 05:53:26;;;;;;;8.90;2.98;;;;;;;34.45;23.12;101822.59;1792071;80;21002;-84
2021/06/17 05:55:53;;;;;;;15.32;4.53;;;;;;;32.66;24.58;101822.73;1792061;79;21587;-83
2021/06/17 05:58:19;;;;;;;14.13;5.08;;;;;;;31.43;25.83;101824.47;1792083;79;21050;-84
2021/06/17 06:00:46;;;;;;;4.90;2.83;;;;;;;30.15;26.92;101826.28;1792016;79;21739;-83
2021/06/17 06:03:15;;;;;;;12.18;3.25;;;;;;;28.97;28.09;101826.98;1792300;79;21159;-83
2021/06/17 06:05:41;;;;;;;8.88;3.30;;;;;;;27.97;29.40;101826.62;1792304;80;21097;-83
2021/06/17 06:08:11;;;;;;;8.58;3.62;;;;;;;27.03;30.47;101828.80;1792208;80;21636;-83
2021/06/17 06:10:37;;;;;;;16.15;5.12;;;;;;;26.26;31.54;101822.58;1791950;79;21198;-83
2021/06/17 06:13:04;;;;;;;15.20;4.47;;;;;;;25.58;32.68;101829.86;1792215;79;21820;-83
2021/06/17 06:15:34;;;;;;;8.80;3.45;;;;;;;25.01;33.72;101824.20;1792096;79;21063;-83
2021/06/17 06:18:11;;;;;;;11.68;4.00;;;;;;;24.42;34.66;101824.27;1792415;80;20999;-83
2021/06/17 06:20:39;;;;;;;15.10;4.10;;;;;;;23.81;35.57;101821.52;1791932;80;21046;-82
2021/06/17 06:23:06;;;;;;;11.63;3.87;;;;;;;23.34;36.66;101825.63;1794545;78;21547;-83
2021/06/17 06:25:33;;;;;;;14.00;4.53;;;;;;;;;;1797751;79;21839;-83
2021/06/17 06:28:00;;;;;;;8.48;3.67;;;;;;;22.88;38.74;101828.73;1797936;79;21022;-83
2021/06/17 06:30:27;;;;;;;7.87;3.67;;;;;;;22.66;39.19;101828.93;1798056;79;21049;-83
2021/06/17 06:32:54;;;;;;;15.63;3.70;;;;;;;22.39;39.78;101829.13;1798002;79;21061;-82
2021/06/17 06:35:20;;;;;;;13.55;3.72;;;;;;;22.24;40.60;101831.00;1798024;78;21116;-82
2021/06/17 06:37:50;;;;;;;8.53;3.65;;;;;;;22.09;41.09;101833.31;1798087;79;21753;-82
2021/06/17 06:40:18;;;;;;;7.08;3.37;;;;;;;21.94;41.55;101834.71;1798198;79;21093;-83
2021/06/17 06:42:44;;;;;;;12.65;3.52;;;;;;;21.84;41.84;101845.93;1797812;79;21057;-83
2021/06/17 06:45:16;;;;;;;11.45;4.05;;;;;;;21.64;42.42;101843.34;1798071;79;21587;-82
2021/06/17 06:47:43;;;;;;;8.30;3.90;;;;;;;21.57;42.83;101842.00;1797174;78;21597;-83
2021/06/17 06:50:11;;;;;;;10.58;3.95;;;;;;;21.51;43.38;101840.23;1797906;79;21775;-82
2021/06/17 06:52:40;;;;;;;5.30;2.90;;;;;;;21.48;43.65;101839.81;1797884;79;21061;-82
2021/06/17 06:55:08;;;;;;;13.15;4.10;;;;;;;21.43;43.99;101836.66;1798161;79;21077;-83
2021/06/17 06:57:35;;;;;;;9.78;3.72;;;;;;;21.41;44.39;101839.34;1798079;79;21062;-82
2021/06/17 07:00:09;;;;;;;10.72;3.72;;;;;;;21.35;44.44;101837.57;1797756;79;21264;-83
2021/06/17 07:02:37;;;;;;;15.65;5.12;;;;;;;21.32;44.94;101840.28;1797714;79;22652;-82
2021/06/17 07:05:06;;;;;;;11.35;3.45;;;;;;;21.34;45.35;101834.89;1797914;79;21034;-83
2021/06/17 07:07:35;;;;;;;10.45;3.52;;;;;;;21.40;45.76;101835.32;1797240;79;21061;-84
2021/06/17 07:10:01;;;;;;;7.80;3.00;;;;;;;21.39;45.79;101841.59;1798178;79;21059;-84
2021/06/17 07:12:31;;;;;;;8.10;3.40;;;;;;;21.43;46.14;101842.02;1798204;78;21053;-84
2021/06/17 07:15:02;;;;;;;8.28;3.52;;;;;;;21.48;46.31;101846.96;1797485;79;21061;-82
2021/06/17 07:17:29;;;;;;;5.72;2.98;;;;;;;21.49;46.31;101840.27;1797938;79;21555;-82
2021/06/17 07:19:56;;;;;;;10.23;4.17;;;;;;;21.49;46.47;101840.27;1798124;79;21053;-82
2021/06/17 07:22:24;;;;;;;11.85;3.70;;;;;;;21.51;46.65;101846.51;1797844;79;21047;-82
2021/06/17 07:24:53;;;;;;;9.90;3.60;;;;;;;21.56;46.92;101851.84;1795015;79;20983;-82
2021/06/17 07:27:21;;;;;;;8.85;3.60;;;;;;;21.58;46.92;101851.38;1795072;79;21207;-82
2021/06/17 07:29:48;;;;;;;6.90;3.05;;;;;;;21.59;46.95;101846.94;1795151;78;20994;-82
2021/06/17 07:32:15;;;;;;;7.17;3.52;;;;;;;21.63;47.23;101851.38;1795536;79;21108;-82
2021/06/17 07:34:45;;;;;;;8.28;3.70;;;;;;;21.69;47.46;101852.70;1794739;79;21536;-82
2021/06/17 07:37:12;;;;;;;11.78;3.83;;;;;;;21.78;47.50;101857.14;1795104;79;21070;-82
2021/06/17 07:39:39;;;;;;;4.30;2.90;;;;;;;21.82;47.24;101860.25;1803598;79;21761;-83
2021/06/17 07:42:07;;;;;;;12.03;3.37;;;;;;;21.83;47.55;101858.91;1795139;78;21089;-83
2021/06/17 07:44:34;;;;;;;9.60;4.37;;;;;;;21.91;47.57;101863.77;1795165;78;21109;-83
2021/06/17 07:47:01;;;;;;;10.78;4.10;;;;;;;21.98;47.73;101863.31;1795015;79;21027;-83
2021/06/17 07:49:27;;;;;;;11.33;3.80;;;;;;;22.03;47.76;101859.25;1795077;79;21041;-83
2021/06/17 07:51:54;;;;;;;11.35;3.35;;;;;;;22.07;47.65;101860.59;1795121;79;21794;-83
2021/06/17 07:54:21;;;;;;;10.85;4.17;;;;;;;22.16;47.74;101862.77;1794991;79;21046;-83
2021/06/17 07:56:50;;;;;;;7.60;3.55;;;;;;;22.23;47.54;101865.86;1794607;79;21073;-83
2021/06/17 07:59:20;;;;;;;9.95;2.95;;;;;;;22.28;47.23;101862.72;1795239;79;21099;-83
2021/06/17 08:01:47;;;;;;;10.90;3.75;;;;;;;22.34;47.43;101858.68;1794973;78;21043;-83
2021/06/17 08:04:14;;;;;;;9.30;3.15;;;;;;;22.43;47.42;101865.75;1795072;79;21795;-83
2021/06/17 08:06:41;;;;;;;12.85;3.15;;;;;;;22.50;47.33;101867.08;1795131;79;21070;-83
2021/06/17 08:09:09;;;;;;;7.58;2.60;;;;;;;22.58;46.81;101858.97;1795127;79;21034;-83
2021/06/17 08:11:37;;;;;;;11.68;3.77;;;;;;;22.61;46.45;101857.59;1795292;79;21155;-83
2021/06/17 08:14:04;;;;;;;7.95;2.25;;;;;;;22.65;46.62;101861.14;1795322;79;20991;-83
2021/06/17 08:16:31;;;;;;;6.12;2.60;;;;;;;22.71;46.53;101852.61;1776075;79;21838;-83
2021/06/17 08:18:57;;;;;;;8.25;3.08;;;;;;;22.82;46.32;101855.64;1795387;79;21942;-83
2021/06/17 08:21:24;;;;;;;9.83;2.87;;;;;;;22.88;46.34;101852.47;1795332;79;21552;-83
2021/06/17 08:23:54;;;;;;;5.55;2.30;;;;;;;22.94;46.13;101847.49;1793367;78;21057;-83
2021/06/17 08:26:21;;;;;;;5.80;1.95;;;;;;;23.00;45.57;101845.20;1792171;79;21093;-83
2021/06/17 08:28:48;;;;;;;8.23;2.33;;;;;;;23.04;45.74;101853.70;1792237;79;22410;-83
2021/06/17 08:31:15;;;;;;;6.20;2.60;;;;;;;23.12;45.67;101850.48;1792152;79;21059;-82
2021/06/17 08:33:41;;;;;;;8.23;2.20;;;;;;;23.20;45.58;101842.34;1792176;78;21069;-83
2021/06/17 08:36:10;;;;;;;5.85;2.22;;;;;;;23.27;45.51;101844.98;1792296;80;21544;-83
2021/06/17 08:38:39;;;;;;;4.37;2.58;;;;;;;23.36;45.42;101843.97;1792420;79;21160;-83
2021/06/17 08:41:06;;;;;;;5.12;2.80;;;;;;;23.46;45.29;101838.03;1792474;79;21779;-83
2021/06/17 08:43:33;;;;;;;6.92;2.45;;;;;;;23.55;44.96;101845.11;1792137;79;21050;-83
2021/06/17 08:45:59;;;;;;;6.22;2.27;;;;;;;23.62;44.84;101849.52;1772569;80;21127;-83
2021/06/17 08:48:26;;;;;;;7.12;2.62;;;;;;;23.70;44.78;101846.73;1792123;80;21002;-83
2021/06/17 08:50:57;;;;;;;10.30;2.50;;;;;;;23.77;44.24;101854.70;1792232;78;21070;-83
2021/06/17 08:53:22;;;;;;;6.15;1.87;;;;;;;23.80;43.83;101853.80;1791023;79;21238;-83
2021/06/17 08:55:49;;;;;;;12.47;2.55;;;;;;;23.80;43.53;101851.11;1792048;80;21054;-83
2021/06/17 08:58:16;;;;;;;6.90;2.65;;;;;;;23.82;43.29;101847.51;1792255;80;21057;-83
2021/06/17 09:00:46;;;;;;;6.35;2.35;;;;;;;23.85;42.93;101835.34;1791946;79;21596;-82
2021/06/17 09:03:18;;;;;;;8.00;1.85;;;;;;;23.86;43.03;101828.20;1792261;79;21026;-83
2021/06/17 09:05:53;;;;;;;5.40;2.30;;;;;;;23.93;43.21;101824.95;1792085;79;22565;-83
2021/06/17 09:08:27;;;;;;;5.47;2.05;;;;;;;24.02;43.29;101833.78;1792185;79;21112;-83
2021/06/17 09:10:54;;;;;;;8.13;2.33;;;;;;;24.08;43.08;101832.80;1792230;79;21085;-82
2021/06/17 09:13:22;;;;;;;4.70;2.25;;;;;;;24.14;43.37;101831.39;1791858;79;21038;-83
2021/06/17 09:15:53;;;;;;;6.25;2.05;;;;;;;24.19;43.21;101832.20;1792066;78;21555;-83
2021/06/17 09:18:30;;;;;;;6.28;3.25;;;;;;;24.20;43.14;101839.38;1792238;78;21748;-83
2021/06/17 09:21:07;;;;;;;6.60;2.45;;;;;;;24.21;43.11;101829.48;1791722;79;21097;-83
2021/06/17 09:23:42;;;;;;;5.50;2.35;;;;;;;24.22;43.02;101829.94;1792013;80;21054;-83
2021/06/17 09:26:20;;;;;;;4.75;1.67;;;;;;;24.21;42.96;101833.52;1792262;79;21014;-83
2021/06/17 09:29:07;;;;;;;5.87;2.15;;;;;;;24.22;42.88;101833.97;1791749;79;21663;-83
2021/06/17 09:31:42;;;;;;;9.85;2.30;;;;;;;24.25;42.91;101837.94;1792134;79;21870;-83
2021/06/17 09:34:10;;;;;;;5.25;2.27;;;;;;;24.32;42.70;101837.41;1791834;79;21564;-83
2021/06/17 09:36:39;;;;;;;7.28;2.62;;;;;;;24.38;42.45;101841.34;1737990;80;21058;-83
2021/06/17 09:39:15;;;;;;;8.15;2.90;;;;;;;24.40;41.75;101832.36;1757122;81;21126;-83
2021/06/17 09:41:48;;;;;;;;;;;;;;;24.36;41.79;101812.23;1759125;80;21102;-82
2021/06/17 09:44:33;;;;;;;5.30;2.15;;;;;;;24.45;42.15;101827.77;1756667;80;21781;-82
2021/06/17 09:47:24;;;;;;;3.75;1.95;;;;;;;24.51;42.25;101817.36;1756489;81;21023;-82
2021/06/17 09:49:54;;;;;;;5.37;1.62;;;;;;;24.56;42.25;101820.03;1756992;81;21136;-83
2021/06/17 09:52:21;;;;;;;9.08;2.25;;;;;;;24.63;41.89;101813.17;1756875;80;21133;-82
2021/06/17 09:54:49;;;;;;;5.15;2.00;;;;;;;24.63;41.89;101813.17;1688442;81;21195;-83
2021/06/17 09:57:19;;;;;;;5.97;2.08;;;;;;;24.64;42.13;101820.78;1757095;80;21765;-82
2021/06/17 09:59:51;;;;;;;5.00;2.22;;;;;;;24.66;41.55;101810.88;1756956;80;21153;-82
2021/06/17 10:02:28;;;;;;;5.83;1.80;;;;;;;24.66;41.55;101810.88;1757091;80;21078;-82
2021/06/17 10:05:19;;;;;;;4.17;1.60;;;;;;;24.72;41.76;101816.61;1756639;80;21541;-83
2021/06/17 10:07:50;;;;;;;6.42;1.67;;;;;;;24.80;41.28;101814.70;1756695;80;21134;-83
2021/06/17 10:10:21;;;;;;;4.95;1.57;;;;;;;24.80;40.92;101815.58;1756743;80;21769;-82
2021/06/17 10:12:47;;;;;;;5.78;1.77;;;;;;;24.91;40.69;101812.70;1756878;81;21135;-83
2021/06/17 10:15:16;;;;;;;4.92;1.72;;;;;;;24.91;40.69;101812.70;1755146;80;21078;-83
2021/06/17 10:17:43;;;;;;;7.90;2.00;;;;;;;24.93;40.65;101789.33;1756859;81;21046;-83
2021/06/17 10:20:12;;;;;;;7.80;1.92;;;;;;;25.04;40.49;101798.56;1762699;80;21587;-83
2021/06/17 10:22:39;;;;;;;8.10;2.25;;;;;;;25.11;40.58;101808.27;1756854;81;22432;-83
2021/06/17 10:25:09;;;;;;;3.30;1.62;;;;;;;25.05;40.49;101794.93;1760794;80;20975;-83
2021/06/17 10:27:40;;;;;;;8.48;3.45;;;;;;;25.14;40.33;101804.66;1762512;81;21483;-83
2021/06/17 10:30:08;;;;;;;5.50;1.82;;;;;;;25.17;40.42;101798.75;1762326;81;21441;-83
2021/06/17 10:32:37;;;;;;;7.15;1.80;;;;;;;25.12;40.24;101788.98;1762540;80;21057;-83
2021/06/17 10:35:05;;;;;;;5.10;1.75;;;;;;;25.06;40.15;101771.56;1762520;80;21476;-83
2021/06/17 10:37:33;;;;;;;7.45;4.17;;;;;;;25.28;40.04;101812.50;1762454;81;21096;-83
2021/06/17 10:40:14;;;;;;;4.40;1.77;;;;;;;25.43;40.15;101811.31;1762729;80;21058;-83
2021/06/17 10:42:46;;;;;;;3.52;1.92;;;;;;;25.43;40.15;101811.31;1762965;80;21108;-82
2021/06/17 10:45:17;;;;;;;5.33;1.52;;;;;;;25.43;39.68;101794.67;1762647;81;21148;-83
2021/06/17 10:47:53;;;;;;;4.12;1.65;;;;;;;25.55;39.62;101815.12;1762663;81;22170;-83
2021/06/17 10:50:24;;;;;;;4.17;1.52;;;;;;;25.61;39.43;101814.52;1762530;81;21065;-83
2021/06/17 10:52:56;;;;;;;5.87;1.65;;;;;;;25.67;39.41;101816.66;1762647;81;21160;-83
2021/06/17 10:55:23;;;;;;;5.17;1.77;;;;;;;25.70;39.18;101807.17;1759866;80;21046;-82
2021/06/17 10:57:52;;;;;;;6.53;1.60;;;;;;;25.73;39.21;101809.34;1762529;81;21529;-82
2021/06/17 11:00:30;;;;;;;2.50;1.70;;;;;;;25.77;39.28;101807.00;1762605;81;21765;-82
2021/06/17 11:03:11;;;;;;;7.65;2.55;;;;;;;25.83;39.47;101811.38;1762493;81;21059;-83
2021/06/17 11:05:51;;;;;;;4.58;1.92;;;;;;;25.92;39.57;101816.61;1739456;81;21117;-83
2021/06/17 11:08:23;;;;;;;2.90;1.90;;;;;;;26.01;39.66;101811.91;1762456;81;22344;-83
2021/06/17 11:11:06;;;;;;;7.25;2.20;;;;;;;26.09;39.46;101810.83;1762680;80;21007;-83
2021/06/17 11:13:37;;;;;;;1.82;1.60;;;;;;;26.14;39.34;101802.14;1762858;80;21730;-83
2021/06/17 11:16:15;;;;;;;8.60;1.67;;;;;;;26.17;39.24;101799.85;1762597;81;21486;-83
2021/06/17 11:19:06;;;;;;;7.22;1.98;;;;;;;26.19;38.80;101800.23;1762508;80;21054;-83
2021/06/17 11:21:38;;;;;;;7.50;1.95;;;;;;;26.19;38.57;101799.35;1762389;80;21499;-83
2021/06/17 11:24:22;;;;;;;4.08;1.57;;;;;;;26.12;38.33;101791.84;1761531;81;21557;-83
2021/06/17 11:26:51;;;;;;;4.83;1.62;;;;;;;26.13;38.39;101790.06;1756599;81;21690;-83
2021/06/17 11:29:23;;;;;;;6.30;2.00;;;;;;;26.14;38.41;101782.37;1756788;81;21074;-82
2021/06/17 11:31:51;;;;;;;4.92;2.00;;;;;;;26.18;38.64;101790.81;1737636;81;21117;-83
2021/06/17 11:34:41;;;;;;;2.80;1.62;;;;;;;26.24;38.39;101774.94;1756864;81;21004;-83
2021/06/17 11:37:22;;;;;;;4.78;1.80;;;;;;;26.28;38.31;101778.89;1756955;81;21026;-83
2021/06/17 11:39:48;;;;;;;8.58;2.30;;;;;;;26.28;38.43;101772.15;1754223;81;21686;-83
2021/06/17 11:42:19;;;;;;;5.35;2.37;;;;;;;26.34;38.09;101770.64;1756769;81;21018;-83
2021/06/17 11:44:47;;;;;;;3.27;1.67;;;;;;;26.42;38.30;101769.56;1756722;81;21054;-82
2021/06/17 11:47:16;;;;;;;4.80;1.90;;;;;;;26.48;38.52;101760.83;1755801;81;21043;-82
2021/06/17 11:49:44;;;;;;;8.83;6.30;;;;;;;26.55;38.53;101766.98;1756940;81;21077;-83
2021/06/17 11:52:15;;;;;;;2.83;1.70;;;;;;;26.62;38.11;101767.28;1756391;81;21616;-83
2021/06/17 11:54:45;;;;;;;7.03;2.65;;;;;;;26.65;37.65;101750.98;1756942;81;21576;-83
2021/06/17 11:57:13;;;;;;;3.83;2.00;;;;;;;26.70;37.51;101757.16;1737723;81;21722;-83
2021/06/17 11:59:42;;;;;;;2.42;1.70;;;;;;;26.75;37.07;101755.70;1757033;81;21046;-83
2021/06/17 12:02:25;;;;;;;3.55;1.92;;;;;;;26.76;36.75;101760.16;1763034;80;21050;-83
2021/06/17 12:05:04;;;;;;;4.00;1.87;;;;;;;26.79;36.84;101760.09;1757160;81;22430;-83
2021/06/17 12:07:33;;;;;;;6.15;2.35;;;;;;;26.83;36.75;101759.55;1757012;81;21532;-83
2021/06/17 12:10:21;;;;;;;3.02;1.90;;;;;;;26.86;37.10;101760.35;1757096;81;21619;-83
2021/06/17 12:12:52;;;;;;;4.03;2.37;;;;;;;26.92;37.24;101757.95;1757018;81;21138;-83
2021/06/17 12:15:28;;;;;;;4.83;2.42;;;;;;;27.00;37.55;101763.14;1756755;81;21074;-83
2021/06/17 12:18:00;;;;;;;4.50;2.75;;;;;;;27.06;37.54;101767.02;1757065;81;21766;-83
2021/06/17 12:20:32;;;;;;;5.50;2.45;;;;;;;27.09;37.64;101772.34;1756916;80;21519;-83